createdAt,value
2019-05-23T00:01:56.595Z,95.30
2019-05-23T00:04:33.298Z,95.20
2019-05-23T00:07:04.275Z,95.40
2019-05-23T00:09:33.855Z,95.30
2019-05-23T00:12:08.757Z,95.50
2019-05-23T00:14:47.364Z,95.50
2019-05-23T00:17:18.627Z,95.60
2019-05-23T00:19:50.189Z,95.60
2019-05-23T00:22:20.309Z,95.70
2019-05-23T00:24:50.633Z,95.60
2019-05-23T00:27:21.829Z,95.80
2019-05-23T00:29:51.226Z,95.70
2019-05-23T00:32:22.851Z,96.00
2019-05-23T00:34:54.053Z,96.00
2019-05-23T00:37:24.541Z,95.70
2019-05-23T00:39:54.542Z,95.90
2019-05-23T00:42:25.525Z,96.00
2019-05-23T00:44:56.192Z,96.00
2019-05-23T00:47:25.700Z,95.80
2019-05-23T00:49:55.964Z,95.80
2019-05-23T00:52:25.850Z,95.90
2019-05-23T00:54:55.468Z,96.00
2019-05-23T00:57:26.547Z,96.10
2019-05-23T00:59:57.619Z,96.10
2019-05-23T01:02:27.106Z,96.00
2019-05-23T01:04:56.633Z,96.10
2019-05-23T01:07:27.013Z,95.90
2019-05-23T01:09:57.983Z,96.00
2019-05-23T01:12:28.227Z,95.80
2019-05-23T01:14:57.651Z,96.10
2019-05-23T01:17:28.595Z,96.10
2019-05-23T01:19:59.900Z,96.00
2019-05-23T01:22:31.042Z,96.00
2019-05-23T01:25:01.047Z,95.90
2019-05-23T01:27:30.391Z,96.00
2019-05-23T01:30:00.619Z,96.20
2019-05-23T01:32:31.945Z,96.20
2019-05-23T01:35:02.047Z,96.30
2019-05-23T01:37:31.992Z,96.10
2019-05-23T01:40:02.027Z,96.20
2019-05-23T01:42:32.945Z,96.20
2019-05-23T01:45:02.534Z,96.00
2019-05-23T01:47:33.486Z,96.00
2019-05-23T01:50:04.450Z,96.00
2019-05-23T01:52:34.157Z,96.10
2019-05-23T01:55:06.420Z,96.20
2019-05-23T01:57:36.179Z,96.10
2019-05-23T02:00:10.915Z,96.00
2019-05-23T02:02:41.794Z,95.80
2019-05-23T02:05:12.300Z,96.20
2019-05-23T02:07:42.170Z,96.30
2019-05-23T02:10:12.480Z,96.00
2019-05-23T02:12:43.028Z,96.10
2019-05-23T02:15:14.186Z,96.00
2019-05-23T02:17:45.222Z,96.00
2019-05-23T02:20:17.861Z,96.00
2019-05-23T02:22:48.244Z,96.20
2019-05-23T02:25:21.290Z,96.20
2019-05-23T02:27:50.974Z,96.00
2019-05-23T02:30:34.346Z,96.40
2019-05-23T02:32:53.151Z,95.90
2019-05-23T02:35:23.095Z,96.00
2019-05-23T02:37:57.197Z,96.10
2019-05-23T02:40:37.222Z,96.00
2019-05-23T02:43:14.620Z,96.10
2019-05-23T02:45:47.452Z,96.10
2019-05-23T02:48:25.149Z,96.30
2019-05-23T02:50:59.212Z,96.20
2019-05-23T02:53:33.434Z,96.30
2019-05-23T02:56:07.773Z,96.30
2019-05-23T02:58:55.621Z,96.20
2019-05-23T03:01:41.859Z,96.20
2019-05-23T03:04:16.779Z,96.50
2019-05-23T03:06:46.123Z,96.50
2019-05-23T03:09:17.224Z,96.50
2019-05-23T03:11:48.877Z,96.30
2019-05-23T03:14:19.173Z,96.40
2019-05-23T03:16:52.127Z,96.30
2019-05-23T03:19:37.162Z,96.60
2019-05-23T03:22:27.665Z,96.60
2019-05-23T03:25:04.404Z,96.50
2019-05-23T03:27:39.817Z,96.70
2019-05-23T03:30:27.767Z,96.60
2019-05-23T03:32:59.445Z,96.70
2019-05-23T03:35:30.657Z,96.80
2019-05-23T03:38:02.099Z,96.70
2019-05-23T03:40:32.067Z,96.80
2019-05-23T03:43:02.467Z,96.80
2019-05-23T03:45:38.924Z,97.00
2019-05-23T03:48:07.191Z,96.80
2019-05-23T03:50:36.689Z,96.80
2019-05-23T03:53:07.979Z,96.80
2019-05-23T03:55:38.553Z,96.80
2019-05-23T03:58:09.967Z,96.90
2019-05-23T04:00:41.257Z,97.00
2019-05-23T04:03:11.300Z,96.80
2019-05-23T04:05:40.955Z,96.90
2019-05-23T04:08:10.904Z,97.00
2019-05-23T04:10:41.184Z,97.20
2019-05-23T04:13:11.433Z,97.10
2019-05-23T04:15:41.875Z,97.50
2019-05-23T04:18:11.331Z,97.40
2019-05-23T04:20:40.694Z,97.50
2019-05-23T04:23:11.290Z,97.50
2019-05-23T04:25:40.825Z,97.50
2019-05-23T04:28:10.433Z,97.50
2019-05-23T04:30:39.795Z,97.50
2019-05-23T04:33:09.636Z,97.70
2019-05-23T04:35:39.280Z,97.50
2019-05-23T04:38:09.497Z,97.80
2019-05-23T04:40:39.071Z,98.00
2019-05-23T04:43:08.487Z,97.90
2019-05-23T04:45:39.483Z,98.20
2019-05-23T04:48:09.241Z,98.10
2019-05-23T04:50:39.448Z,97.90
2019-05-23T04:53:09.814Z,97.80
2019-05-23T04:55:40.092Z,98.10
2019-05-23T04:58:10.951Z,98.10
2019-05-23T05:00:40.579Z,97.80
2019-05-23T05:03:10.956Z,97.90
2019-05-23T05:05:42.801Z,97.70
2019-05-23T05:08:12.884Z,98.00
2019-05-23T05:10:42.930Z,98.10
2019-05-23T05:13:12.436Z,97.70
2019-05-23T05:15:41.885Z,97.70
2019-05-23T05:18:11.578Z,97.50
2019-05-23T05:20:41.030Z,97.50
2019-05-23T05:23:10.451Z,97.50
2019-05-23T05:25:39.814Z,97.10
2019-05-23T05:28:09.607Z,97.70
2019-05-23T05:30:39.175Z,97.10
2019-05-23T05:33:08.582Z,96.90
2019-05-23T05:35:38.788Z,97.20
2019-05-23T05:38:08.501Z,97.20
2019-05-23T05:40:38.201Z,96.60
2019-05-23T05:43:08.381Z,96.70
2019-05-23T05:45:37.888Z,97.00
2019-05-23T05:48:07.336Z,96.90
2019-05-23T05:50:36.950Z,96.90
2019-05-23T05:53:07.215Z,96.70
2019-05-23T05:55:36.587Z,96.50
2019-05-23T05:58:06.721Z,96.40
2019-05-23T06:00:49.372Z,96.70
2019-05-23T06:03:19.670Z,96.70
2019-05-23T06:05:50.756Z,95.90
2019-05-23T06:08:22.085Z,96.70
2019-05-23T06:10:51.852Z,95.90
2019-05-23T06:13:21.646Z,95.90
2019-05-23T06:15:52.710Z,95.90
2019-05-23T06:18:22.470Z,95.90
2019-05-23T06:20:51.847Z,95.40
2019-05-23T06:23:21.881Z,95.70
2019-05-23T06:25:51.539Z,96.30
2019-05-23T06:28:21.983Z,94.90
2019-05-23T06:30:52.187Z,95.40
2019-05-23T06:33:24.120Z,94.30
2019-05-23T06:35:54.535Z,94.50
2019-05-23T06:38:26.007Z,94.00
2019-05-23T06:40:55.788Z,93.60
2019-05-23T06:43:25.561Z,94.00
2019-05-23T06:45:55.218Z,94.50
2019-05-23T06:48:25.131Z,94.80
2019-05-23T06:50:54.484Z,94.60
2019-05-23T06:53:23.952Z,94.30
2019-05-23T06:55:53.326Z,94.20
2019-05-23T06:58:23.339Z,95.20
2019-05-23T07:00:53.533Z,94.10
2019-05-23T07:03:38.488Z,94.80
2019-05-23T07:05:54.971Z,94.80
2019-05-23T07:08:27.422Z,94.80
2019-05-23T07:10:56.845Z,95.50
2019-05-23T07:13:29.636Z,94.60
2019-05-23T07:15:59.320Z,95.60
2019-05-23T07:18:28.863Z,94.80
2019-05-23T07:20:58.355Z,94.20
2019-05-23T07:23:28.375Z,94.40
2019-05-23T07:25:57.742Z,92.90
2019-05-23T07:28:27.287Z,93.70
2019-05-23T07:30:56.776Z,93.40
2019-05-23T07:33:26.215Z,93.00
2019-05-23T07:35:56.544Z,92.90
2019-05-23T07:38:28.984Z,92.00
2019-05-23T07:40:58.656Z,92.50
2019-05-23T07:43:28.373Z,92.40
2019-05-23T07:45:59.048Z,92.20
2019-05-23T07:48:29.328Z,91.70
2019-05-23T07:50:58.977Z,92.30
2019-05-23T07:53:44.034Z,93.30
2019-05-23T07:56:33.327Z,92.70
2019-05-23T07:59:02.889Z,90.00
2019-05-23T08:01:34.468Z,90.00
2019-05-23T08:04:20.467Z,91.20
2019-05-23T08:06:36.292Z,90.70
2019-05-23T08:09:09.835Z,91.00
2019-05-23T08:11:40.238Z,89.30
2019-05-23T08:14:12.005Z,88.80
2019-05-23T08:16:41.376Z,90.80
2019-05-23T08:19:11.024Z,90.00
2019-05-23T08:21:40.759Z,86.30
2019-05-23T08:24:11.232Z,88.40
2019-05-23T08:26:41.809Z,89.20
2019-05-23T08:29:25.536Z,83.50
2019-05-23T08:31:44.946Z,85.50
2019-05-23T08:34:14.987Z,80.80
2019-05-23T08:36:44.360Z,81.70
2019-05-23T08:39:14.376Z,80.50
2019-05-23T08:41:44.027Z,76.80
2019-05-23T08:44:13.934Z,81.70
2019-05-23T08:46:43.718Z,84.50
2019-05-23T08:49:13.411Z,82.00
2019-05-23T08:51:43.432Z,80.10
2019-05-23T08:54:12.873Z,82.10
2019-05-23T08:56:42.473Z,77.60
2019-05-23T08:59:12.503Z,80.70
2019-05-23T09:01:41.922Z,80.10
2019-05-23T09:04:11.436Z,79.90
2019-05-23T09:06:41.604Z,77.10
2019-05-23T09:09:28.252Z,75.60
2019-05-23T09:11:44.167Z,78.90
2019-05-23T09:14:13.753Z,77.40
2019-05-23T09:16:43.255Z,79.30
2019-05-23T09:19:12.701Z,79.00
2019-05-23T09:21:42.117Z,74.20
2019-05-23T09:24:12.703Z,78.50
2019-05-23T09:26:42.563Z,79.70
2019-05-23T09:29:12.318Z,78.10
2019-05-23T09:31:41.683Z,77.70
2019-05-23T09:34:11.066Z,78.00
2019-05-23T09:36:42.061Z,74.10
2019-05-23T09:39:15.358Z,74.70
2019-05-23T09:41:45.686Z,73.60
2019-05-23T09:44:15.395Z,74.10
2019-05-23T09:46:45.028Z,76.50
2019-05-23T09:49:14.543Z,72.10
2019-05-23T09:51:43.907Z,74.20
2019-05-23T09:54:14.142Z,70.60
2019-05-23T09:56:44.044Z,70.10
2019-05-23T09:59:13.496Z,73.10
2019-05-23T10:01:42.921Z,79.20
2019-05-23T10:04:12.360Z,73.80
2019-05-23T10:06:41.719Z,73.10
2019-05-23T10:09:11.092Z,77.00
2019-05-23T10:11:40.520Z,72.00
2019-05-23T10:14:11.594Z,70.30
2019-05-23T10:16:41.184Z,72.80
2019-05-23T10:19:10.558Z,67.40
2019-05-23T10:21:40.708Z,69.60
2019-05-23T10:24:11.191Z,69.30
2019-05-23T10:26:40.580Z,68.50
2019-05-23T10:29:10.018Z,67.10
2019-05-23T10:31:58.755Z,67.70
2019-05-23T10:34:28.370Z,67.10
2019-05-23T10:36:57.702Z,65.90
2019-05-23T10:39:27.464Z,65.40
2019-05-23T10:41:57.211Z,65.40
2019-05-23T10:44:26.584Z,68.50
2019-05-23T10:46:55.946Z,65.20
2019-05-23T10:49:25.552Z,65.30
2019-05-23T10:51:54.987Z,65.30
2019-05-23T10:54:24.451Z,64.20
2019-05-23T10:56:53.802Z,64.20
2019-05-23T10:59:23.231Z,64.80
2019-05-23T11:01:52.688Z,63.30
2019-05-23T11:04:22.108Z,61.20
2019-05-23T11:06:51.551Z,64.70
2019-05-23T11:09:36.520Z,64.30
2019-05-23T11:11:52.988Z,61.10
2019-05-23T11:14:22.507Z,61.40
2019-05-23T11:16:52.390Z,66.00
2019-05-23T11:19:22.252Z,61.10
2019-05-23T11:22:11.566Z,60.40
2019-05-23T11:24:41.003Z,59.20
2019-05-23T11:27:10.361Z,56.20
2019-05-23T11:29:39.728Z,59.10
2019-05-23T11:32:09.646Z,57.00
2019-05-23T11:34:39.332Z,59.40
2019-05-23T11:37:08.847Z,57.70
2019-05-23T11:39:42.211Z,58.30
2019-05-23T11:42:09.723Z,57.70
2019-05-23T11:44:39.148Z,60.00
2019-05-23T11:47:08.657Z,59.30
2019-05-23T11:49:38.055Z,59.00
2019-05-23T11:52:07.527Z,58.80
2019-05-23T11:54:38.276Z,61.90
2019-05-23T11:57:09.258Z,58.40
2019-05-23T11:59:38.677Z,57.70
2019-05-23T12:02:26.060Z,59.10
2019-05-23T12:05:00.121Z,57.00
2019-05-23T12:07:30.346Z,58.00
2019-05-23T12:09:59.758Z,55.90
2019-05-23T12:12:29.217Z,57.80
2019-05-23T12:14:58.639Z,55.20
2019-05-23T12:17:30.121Z,54.40
2019-05-23T12:19:59.463Z,52.70
2019-05-23T12:22:29.371Z,56.50
2019-05-23T12:24:58.852Z,56.10
2019-05-23T12:27:28.444Z,54.90
2019-05-23T12:29:58.407Z,54.50
2019-05-23T12:32:27.848Z,55.70
2019-05-23T12:35:10.661Z,54.20
2019-05-23T12:37:28.707Z,54.10
2019-05-23T12:39:59.836Z,54.90
2019-05-23T12:42:29.830Z,54.70
2019-05-23T12:44:59.291Z,56.10
2019-05-23T12:47:30.428Z,54.60
2019-05-23T12:50:01.481Z,55.00
2019-05-23T12:52:32.716Z,53.90
2019-05-23T12:55:02.397Z,53.70
2019-05-23T12:57:32.521Z,56.20
2019-05-23T13:00:03.101Z,54.80
2019-05-23T13:02:32.464Z,53.40
2019-05-23T13:05:01.972Z,55.20
2019-05-23T13:07:36.408Z,55.00
2019-05-23T13:10:02.473Z,55.80
2019-05-23T13:12:31.996Z,54.80
2019-05-23T13:15:01.478Z,52.40
2019-05-23T13:17:30.932Z,54.50
2019-05-23T13:20:00.302Z,53.50
2019-05-23T13:22:29.736Z,53.40
2019-05-23T13:24:59.357Z,54.30
2019-05-23T13:27:29.180Z,54.50
2019-05-23T13:29:58.675Z,54.20
2019-05-23T13:32:28.187Z,53.50
2019-05-23T13:34:57.687Z,54.30
2019-05-23T13:37:27.509Z,54.30
2019-05-23T13:39:57.056Z,53.90
2019-05-23T13:42:26.543Z,56.00
2019-05-23T13:44:55.945Z,55.70
2019-05-23T13:47:25.433Z,56.00
2019-05-23T13:49:54.790Z,54.40
2019-05-23T13:52:24.239Z,54.80
2019-05-23T13:54:53.714Z,53.90
2019-05-23T13:57:23.148Z,53.60
2019-05-23T13:59:55.111Z,53.00
2019-05-23T14:02:24.712Z,55.60
2019-05-23T14:04:54.219Z,55.60
2019-05-23T14:07:25.278Z,56.60
2019-05-23T14:09:54.876Z,56.60
2019-05-23T14:12:24.372Z,56.60
2019-05-23T14:14:53.707Z,56.00
2019-05-23T14:17:27.852Z,56.80
2019-05-23T14:19:57.214Z,56.90
2019-05-23T14:22:27.617Z,57.80
2019-05-23T14:24:57.063Z,54.50
2019-05-23T14:27:43.128Z,55.10
2019-05-23T14:30:20.701Z,56.10
2019-05-23T14:32:57.695Z,54.40
2019-05-23T14:35:28.679Z,56.20
2019-05-23T14:37:59.760Z,53.50
2019-05-23T14:40:29.707Z,56.10
2019-05-23T14:43:03.771Z,57.40
2019-05-23T14:45:50.098Z,56.60
2019-05-23T14:48:21.168Z,56.70
2019-05-23T14:50:58.217Z,58.10
2019-05-23T14:53:32.024Z,56.50
2019-05-23T14:56:01.367Z,56.50
2019-05-23T14:58:31.579Z,57.40
2019-05-23T15:01:02.148Z,56.70
2019-05-23T15:03:35.699Z,55.90
2019-05-23T15:06:03.937Z,56.20
2019-05-23T15:08:49.704Z,56.60
2019-05-23T15:11:04.652Z,57.00
2019-05-23T15:13:34.057Z,55.30
2019-05-23T15:16:05.277Z,56.10
2019-05-23T15:18:34.762Z,56.30
2019-05-23T15:21:04.757Z,56.20
2019-05-23T15:23:34.503Z,56.50
2019-05-23T15:26:21.493Z,56.90
2019-05-23T15:28:35.294Z,57.80
2019-05-23T15:31:05.139Z,58.30
2019-05-23T15:33:34.775Z,55.80
2019-05-23T15:36:04.776Z,56.30
2019-05-23T15:38:34.144Z,56.60
2019-05-23T15:41:03.624Z,56.50
2019-05-23T15:43:33.004Z,57.00
2019-05-23T15:46:02.487Z,57.80
2019-05-23T15:48:31.910Z,56.90
2019-05-23T15:51:01.532Z,57.10
2019-05-23T15:53:38.610Z,57.40
2019-05-23T15:56:26.971Z,57.90
2019-05-23T15:58:48.294Z,57.00
2019-05-23T16:01:22.348Z,56.60
2019-05-23T16:03:53.341Z,56.90
2019-05-23T16:06:27.713Z,55.70
2019-05-23T16:08:57.218Z,56.70
2019-05-23T16:11:26.647Z,55.90
2019-05-23T16:13:56.180Z,57.10
2019-05-23T16:16:27.183Z,56.70
2019-05-23T16:18:56.538Z,57.80
2019-05-23T16:21:26.536Z,57.60
2019-05-23T16:23:56.054Z,58.30
2019-05-23T16:26:25.400Z,57.40
2019-05-23T16:28:54.751Z,57.30
2019-05-23T16:31:24.200Z,56.70
2019-05-23T16:33:53.760Z,56.80
2019-05-23T16:36:23.134Z,57.20
2019-05-23T16:38:52.555Z,57.60
2019-05-23T16:41:22.014Z,56.80
2019-05-23T16:43:51.559Z,55.90
2019-05-23T16:46:21.198Z,56.20
2019-05-23T16:48:50.871Z,56.50
2019-05-23T16:51:20.307Z,56.90
2019-05-23T16:53:50.183Z,57.00
2019-05-23T16:56:39.699Z,57.20
2019-05-23T16:59:18.240Z,56.00
2019-05-23T17:02:05.633Z,57.10
2019-05-23T17:04:30.587Z,56.70
2019-05-23T17:07:07.462Z,57.00
2019-05-23T17:09:38.764Z,57.20
2019-05-23T17:12:11.009Z,57.20
2019-05-23T17:14:51.710Z,55.60
2019-05-23T17:18:00.035Z,55.90
2019-05-23T17:20:21.042Z,56.90
2019-05-23T17:22:55.234Z,57.40
2019-05-23T17:25:26.402Z,56.20
2019-05-23T17:28:03.785Z,56.10
2019-05-23T17:30:53.036Z,57.40
2019-05-23T17:33:23.031Z,57.90
2019-05-23T17:35:52.608Z,57.40
2019-05-23T17:38:22.007Z,57.80
2019-05-23T17:40:51.443Z,58.30
2019-05-23T17:43:21.070Z,56.50
2019-05-23T17:45:51.184Z,57.80
2019-05-23T17:48:20.644Z,56.90
2019-05-23T17:50:50.084Z,57.50
2019-05-23T17:53:20.144Z,57.80
2019-05-23T17:55:50.980Z,57.70
2019-05-23T17:58:21.659Z,58.30
2019-05-23T18:00:51.478Z,57.10
2019-05-23T18:03:21.058Z,56.70
2019-05-23T18:05:51.142Z,57.80
2019-05-23T18:08:21.130Z,58.00
2019-05-23T18:10:51.939Z,57.40
2019-05-23T18:13:22.220Z,58.20
2019-05-23T18:15:52.151Z,58.90
2019-05-23T18:18:21.850Z,60.00
2019-05-23T18:20:51.651Z,59.80
2019-05-23T18:23:21.823Z,59.00
2019-05-23T18:25:51.642Z,60.00
2019-05-23T18:28:20.974Z,59.20
2019-05-23T18:30:56.087Z,59.30
2019-05-23T18:33:25.480Z,59.90
2019-05-23T18:35:56.253Z,60.10
2019-05-23T18:38:26.109Z,60.40
2019-05-23T18:41:03.135Z,60.30
2019-05-23T18:43:26.943Z,62.00
2019-05-23T18:45:58.119Z,62.10
2019-05-23T18:48:27.575Z,63.80
2019-05-23T18:50:57.347Z,64.30
2019-05-23T18:53:26.792Z,65.30
2019-05-23T18:55:56.284Z,66.10
2019-05-23T18:58:25.726Z,65.50
2019-05-23T19:01:04.803Z,65.80
2019-05-23T19:03:34.668Z,66.90
2019-05-23T19:06:04.462Z,68.00
2019-05-23T19:08:33.906Z,69.30
2019-05-23T19:11:19.508Z,69.00
2019-05-23T19:13:34.790Z,69.90
2019-05-23T19:16:04.697Z,69.70
2019-05-23T19:18:34.818Z,70.00
2019-05-23T19:21:05.863Z,70.50
2019-05-23T19:23:36.837Z,70.60
2019-05-23T19:26:07.050Z,70.50
2019-05-23T19:28:36.681Z,70.40
2019-05-23T19:31:06.157Z,71.10
2019-05-23T19:33:36.215Z,71.60
2019-05-23T19:36:06.146Z,71.70
2019-05-23T19:38:35.497Z,72.10
2019-05-23T19:41:04.996Z,72.50
2019-05-23T19:43:34.760Z,72.10
2019-05-23T19:46:04.566Z,71.90
2019-05-23T19:48:34.748Z,72.80
2019-05-23T19:51:05.913Z,73.40
2019-05-23T19:53:36.250Z,72.80
2019-05-23T19:56:06.824Z,73.70
2019-05-23T19:58:36.244Z,74.40
2019-05-23T20:01:06.587Z,74.00
2019-05-23T20:03:36.294Z,73.80
2019-05-23T20:06:06.639Z,74.00
2019-05-23T20:08:36.011Z,74.80
2019-05-23T20:11:05.856Z,75.20
2019-05-23T20:13:35.372Z,76.60
2019-05-23T20:16:05.430Z,76.40
2019-05-23T20:18:35.387Z,77.50
2019-05-23T20:21:05.371Z,77.90
2019-05-23T20:23:35.047Z,77.70
2019-05-23T20:26:07.980Z,78.60
2019-05-23T20:28:39.802Z,79.40
2019-05-23T20:31:07.941Z,79.10
2019-05-23T20:33:37.365Z,78.90
2019-05-23T20:36:11.912Z,79.00
2019-05-23T20:38:40.065Z,79.20
2019-05-23T20:41:09.423Z,79.40
2019-05-23T20:43:38.953Z,79.70
2019-05-23T20:46:08.441Z,79.80
2019-05-23T20:48:37.887Z,80.40
2019-05-23T20:51:07.390Z,80.80
2019-05-23T20:53:36.803Z,81.20
2019-05-23T20:56:06.347Z,81.20
2019-05-23T20:58:35.795Z,81.80
2019-05-23T21:01:16.023Z,82.50
2019-05-23T21:03:43.951Z,82.80
2019-05-23T21:06:16.653Z,82.80
2019-05-23T21:08:46.007Z,83.00
2019-05-23T21:11:15.525Z,83.60
2019-05-23T21:13:44.883Z,83.60
2019-05-23T21:16:14.259Z,83.90
2019-05-23T21:18:43.626Z,84.20
2019-05-23T21:21:13.295Z,84.50
2019-05-23T21:23:42.665Z,85.70
2019-05-23T21:26:12.043Z,85.40
2019-05-23T21:28:41.552Z,85.00
2019-05-23T21:31:12.686Z,85.50
2019-05-23T21:33:42.126Z,85.80
2019-05-23T21:36:11.480Z,86.00
2019-05-23T21:38:40.834Z,85.90
2019-05-23T21:41:10.359Z,86.20
2019-05-23T21:43:39.775Z,86.70
2019-05-23T21:46:09.280Z,86.90
2019-05-23T21:48:38.687Z,86.30
2019-05-23T21:51:08.060Z,86.80
2019-05-23T21:53:37.473Z,86.90
2019-05-23T21:56:07.301Z,87.40
2019-05-23T21:58:36.702Z,87.50
2019-05-23T22:01:09.616Z,87.80
2019-05-23T22:03:54.114Z,88.10
2019-05-23T22:06:41.530Z,88.30
2019-05-23T22:09:12.012Z,87.90
2019-05-23T22:11:41.553Z,88.60
2019-05-23T22:14:11.036Z,88.70
2019-05-23T22:16:40.610Z,88.20
2019-05-23T22:19:11.903Z,89.20
2019-05-23T22:21:41.345Z,89.50
2019-05-23T22:24:11.839Z,89.20
2019-05-23T22:26:41.272Z,89.50
2019-05-23T22:29:10.754Z,89.60
2019-05-23T22:31:40.122Z,89.80
2019-05-23T22:34:19.659Z,89.40
2019-05-23T22:36:49.082Z,90.00
2019-05-23T22:39:19.170Z,89.60
2019-05-23T22:41:48.599Z,89.60
2019-05-23T22:44:17.951Z,89.30
2019-05-23T22:46:47.463Z,89.60
2019-05-23T22:49:16.948Z,89.40
2019-05-23T22:51:46.327Z,89.90
2019-05-23T22:54:15.681Z,89.70
2019-05-23T22:56:45.040Z,89.80
2019-05-23T22:59:14.398Z,89.70
2019-05-23T23:01:43.838Z,89.90
2019-05-23T23:04:13.235Z,90.00
2019-05-23T23:06:42.696Z,89.80
2019-05-23T23:09:12.198Z,90.10
2019-05-23T23:11:41.976Z,90.30
2019-05-23T23:14:11.339Z,90.20
2019-05-23T23:16:40.777Z,90.10
2019-05-23T23:19:10.223Z,90.10
2019-05-23T23:21:39.671Z,90.20
2019-05-23T23:24:09.033Z,90.10
2019-05-23T23:26:38.395Z,90.10
2019-05-23T23:29:08.188Z,90.00
2019-05-23T23:31:37.683Z,90.10
2019-05-23T23:34:07.042Z,90.60
2019-05-23T23:36:36.406Z,90.60
2019-05-23T23:39:07.543Z,90.90
2019-05-23T23:41:36.911Z,90.90
2019-05-23T23:44:08.550Z,91.20
2019-05-23T23:46:56.135Z,91.20
2019-05-23T23:49:43.260Z,91.00
2019-05-23T23:52:30.314Z,91.20
2019-05-23T23:55:17.846Z,91.20
2019-05-23T23:58:01.501Z,91.30
